sensor_id;sensor_type;location;lat;lon;timestamp;temperature;humidity
10057;DHT22;5068;51.286;7.518;2023-09-08T00:00:25;13.00;62.60
10057;DHT22;5068;51.286;7.518;2023-09-08T00:01:58;13.00;62.80
10057;DHT22;5068;51.286;7.518;2023-09-08T00:03:32;13.00;62.90
10057;DHT22;5068;51.286;7.518;2023-09-08T00:05:04;13.00;63.40
10057;DHT22;5068;51.286;7.518;2023-09-08T00:06:39;12.90;62.90
10057;DHT22;5068;51.286;7.518;2023-09-08T00:08:11;13.00;62.90
10057;DHT22;5068;51.286;7.518;2023-09-08T00:09:45;12.90;62.70
10057;DHT22;5068;51.286;7.518;2023-09-08T00:11:19;12.90;63.00
10057;DHT22;5068;51.286;7.518;2023-09-08T00:12:52;12.90;63.90
10057;DHT22;5068;51.286;7.518;2023-09-08T00:14:25;12.90;63.50
10057;DHT22;5068;51.286;7.518;2023-09-08T00:15:58;13.00;63.00
10057;DHT22;5068;51.286;7.518;2023-09-08T00:17:32;12.90;63.00
10057;DHT22;5068;51.286;7.518;2023-09-08T00:19:04;12.80;62.60
10057;DHT22;5068;51.286;7.518;2023-09-08T00:20:38;12.80;63.30
10057;DHT22;5068;51.286;7.518;2023-09-08T00:22:11;12.80;63.30
10057;DHT22;5068;51.286;7.518;2023-09-08T00:23:45;12.80;63.10
10057;DHT22;5068;51.286;7.518;2023-09-08T00:25:17;12.80;63.30
10057;DHT22;5068;51.286;7.518;2023-09-08T00:26:52;12.80;63.20
10057;DHT22;5068;51.286;7.518;2023-09-08T00:28:26;12.80;62.80
10057;DHT22;5068;51.286;7.518;2023-09-08T00:29:58;12.80;62.80
10057;DHT22;5068;51.286;7.518;2023-09-08T00:31:35;12.70;62.80
10057;DHT22;5068;51.286;7.518;2023-09-08T00:33:07;12.80;62.80
10057;DHT22;5068;51.286;7.518;2023-09-08T00:34:41;12.80;63.30
10057;DHT22;5068;51.286;7.518;2023-09-08T00:36:14;12.80;63.10
10057;DHT22;5068;51.286;7.518;2023-09-08T00:37:48;12.80;62.80
10057;DHT22;5068;51.286;7.518;2023-09-08T00:39:22;12.70;62.60
10057;DHT22;5068;51.286;7.518;2023-09-08T00:40:54;12.70;62.60
10057;DHT22;5068;51.286;7.518;2023-09-08T00:42:29;12.70;62.90
10057;DHT22;5068;51.286;7.518;2023-09-08T00:44:03;12.60;62.80
10057;DHT22;5068;51.286;7.518;2023-09-08T00:45:40;12.60;63.90
10057;DHT22;5068;51.286;7.518;2023-09-08T00:47:15;12.60;63.60
10057;DHT22;5068;51.286;7.518;2023-09-08T00:48:48;12.60;63.50
10057;DHT22;5068;51.286;7.518;2023-09-08T00:50:22;12.60;63.80
10057;DHT22;5068;51.286;7.518;2023-09-08T00:51:55;12.60;63.90
10057;DHT22;5068;51.286;7.518;2023-09-08T00:53:29;12.60;64.10
10057;DHT22;5068;51.286;7.518;2023-09-08T00:55:03;12.60;63.30
10057;DHT22;5068;51.286;7.518;2023-09-08T00:56:37;12.60;64.60
10057;DHT22;5068;51.286;7.518;2023-09-08T00:58:13;12.60;64.60
10057;DHT22;5068;51.286;7.518;2023-09-08T00:59:47;12.60;64.00
10057;DHT22;5068;51.286;7.518;2023-09-08T01:01:20;12.70;63.70
10057;DHT22;5068;51.286;7.518;2023-09-08T01:02:53;12.60;63.50
10057;DHT22;5068;51.286;7.518;2023-09-08T01:04:26;12.60;63.70
10057;DHT22;5068;51.286;7.518;2023-09-08T01:06:00;12.60;64.00
10057;DHT22;5068;51.286;7.518;2023-09-08T01:07:34;12.50;64.00
10057;DHT22;5068;51.286;7.518;2023-09-08T01:09:09;12.70;64.20
10057;DHT22;5068;51.286;7.518;2023-09-08T01:10:45;12.50;64.10
10057;DHT22;5068;51.286;7.518;2023-09-08T01:12:19;12.50;63.90
10057;DHT22;5068;51.286;7.518;2023-09-08T01:13:54;12.50;64.00
10057;DHT22;5068;51.286;7.518;2023-09-08T01:15:26;12.50;64.00
10057;DHT22;5068;51.286;7.518;2023-09-08T01:17:00;12.50;64.00
10057;DHT22;5068;51.286;7.518;2023-09-08T01:18:34;12.50;62.90
10057;DHT22;5068;51.286;7.518;2023-09-08T01:20:15;12.60;63.80
10057;DHT22;5068;51.286;7.518;2023-09-08T01:22:11;12.50;64.60
10057;DHT22;5068;51.286;7.518;2023-09-08T01:24:21;12.50;64.90
10057;DHT22;5068;51.286;7.518;2023-09-08T01:26:16;12.50;64.80
10057;DHT22;5068;51.286;7.518;2023-09-08T01:27:54;12.60;64.70
10057;DHT22;5068;51.286;7.518;2023-09-08T01:29:31;12.40;64.40
10057;DHT22;5068;51.286;7.518;2023-09-08T01:31:05;12.40;64.60
10057;DHT22;5068;51.286;7.518;2023-09-08T01:32:39;12.50;65.00
10057;DHT22;5068;51.286;7.518;2023-09-08T01:34:14;12.40;64.20
10057;DHT22;5068;51.286;7.518;2023-09-08T01:35:48;12.50;64.10
10057;DHT22;5068;51.286;7.518;2023-09-08T01:37:22;12.40;64.40
10057;DHT22;5068;51.286;7.518;2023-09-08T01:38:56;12.40;64.00
10057;DHT22;5068;51.286;7.518;2023-09-08T01:40:30;12.40;64.10
10057;DHT22;5068;51.286;7.518;2023-09-08T01:42:05;12.40;64.20
10057;DHT22;5068;51.286;7.518;2023-09-08T01:43:38;12.40;64.30
10057;DHT22;5068;51.286;7.518;2023-09-08T01:45:12;12.40;63.80
10057;DHT22;5068;51.286;7.518;2023-09-08T01:46:44;12.40;64.20
10057;DHT22;5068;51.286;7.518;2023-09-08T01:48:18;12.40;64.30
10057;DHT22;5068;51.286;7.518;2023-09-08T01:49:51;12.30;64.70
10057;DHT22;5068;51.286;7.518;2023-09-08T01:51:24;12.40;64.70
10057;DHT22;5068;51.286;7.518;2023-09-08T01:52:57;12.40;65.00
10057;DHT22;5068;51.286;7.518;2023-09-08T01:54:30;12.30;64.60
10057;DHT22;5068;51.286;7.518;2023-09-08T01:56:04;12.40;65.00
10057;DHT22;5068;51.286;7.518;2023-09-08T01:57:37;12.40;64.90
10057;DHT22;5068;51.286;7.518;2023-09-08T01:59:11;12.30;64.80
10057;DHT22;5068;51.286;7.518;2023-09-08T02:00:48;12.30;64.90
10057;DHT22;5068;51.286;7.518;2023-09-08T02:02:22;12.30;65.20
10057;DHT22;5068;51.286;7.518;2023-09-08T02:03:55;12.40;64.90
10057;DHT22;5068;51.286;7.518;2023-09-08T02:05:29;12.30;64.30
10057;DHT22;5068;51.286;7.518;2023-09-08T02:07:03;12.30;65.10
10057;DHT22;5068;51.286;7.518;2023-09-08T02:08:37;12.30;64.60
10057;DHT22;5068;51.286;7.518;2023-09-08T02:10:11;12.30;64.30
10057;DHT22;5068;51.286;7.518;2023-09-08T02:11:44;12.30;64.30
10057;DHT22;5068;51.286;7.518;2023-09-08T02:13:19;12.30;64.40
10057;DHT22;5068;51.286;7.518;2023-09-08T02:14:51;12.30;64.30
10057;DHT22;5068;51.286;7.518;2023-09-08T02:16:25;12.30;64.30
10057;DHT22;5068;51.286;7.518;2023-09-08T02:17:58;12.30;64.60
10057;DHT22;5068;51.286;7.518;2023-09-08T02:19:31;12.30;64.40
10057;DHT22;5068;51.286;7.518;2023-09-08T02:21:04;12.20;64.30
10057;DHT22;5068;51.286;7.518;2023-09-08T02:22:37;12.40;64.40
10057;DHT22;5068;51.286;7.518;2023-09-08T02:24:10;12.30;64.30
10057;DHT22;5068;51.286;7.518;2023-09-08T02:25:44;12.20;64.40
10057;DHT22;5068;51.286;7.518;2023-09-08T02:27:16;12.20;64.40
10057;DHT22;5068;51.286;7.518;2023-09-08T02:28:54;12.20;64.80
10057;DHT22;5068;51.286;7.518;2023-09-08T02:30:29;12.20;64.80
10057;DHT22;5068;51.286;7.518;2023-09-08T02:32:04;12.20;64.30
10057;DHT22;5068;51.286;7.518;2023-09-08T02:33:38;12.20;65.00
10057;DHT22;5068;51.286;7.518;2023-09-08T02:35:11;12.10;64.60
10057;DHT22;5068;51.286;7.518;2023-09-08T02:36:44;12.20;64.40
10057;DHT22;5068;51.286;7.518;2023-09-08T02:38:20;12.10;64.80
10057;DHT22;5068;51.286;7.518;2023-09-08T02:39:53;12.10;64.30
10057;DHT22;5068;51.286;7.518;2023-09-08T02:41:26;12.10;64.60
10057;DHT22;5068;51.286;7.518;2023-09-08T02:42:59;12.00;65.00
10057;DHT22;5068;51.286;7.518;2023-09-08T02:44:34;12.20;65.50
10057;DHT22;5068;51.286;7.518;2023-09-08T02:46:07;12.10;65.30
10057;DHT22;5068;51.286;7.518;2023-09-08T02:47:42;12.10;64.90
10057;DHT22;5068;51.286;7.518;2023-09-08T02:49:15;12.10;65.00
10057;DHT22;5068;51.286;7.518;2023-09-08T02:50:48;12.10;65.50
10057;DHT22;5068;51.286;7.518;2023-09-08T02:52:21;12.10;66.10
10057;DHT22;5068;51.286;7.518;2023-09-08T02:53:54;12.10;65.20
10057;DHT22;5068;51.286;7.518;2023-09-08T02:55:27;12.10;65.10
10057;DHT22;5068;51.286;7.518;2023-09-08T02:57:02;12.10;65.00
10057;DHT22;5068;51.286;7.518;2023-09-08T02:58:36;12.10;65.50
10057;DHT22;5068;51.286;7.518;2023-09-08T03:00:11;12.20;65.40
10057;DHT22;5068;51.286;7.518;2023-09-08T03:01:46;12.00;66.00
10057;DHT22;5068;51.286;7.518;2023-09-08T03:03:19;12.00;65.60
10057;DHT22;5068;51.286;7.518;2023-09-08T03:04:53;12.10;65.70
10057;DHT22;5068;51.286;7.518;2023-09-08T03:06:26;12.00;65.10
10057;DHT22;5068;51.286;7.518;2023-09-08T03:08:00;12.00;65.00
10057;DHT22;5068;51.286;7.518;2023-09-08T03:09:33;12.00;64.90
10057;DHT22;5068;51.286;7.518;2023-09-08T03:11:07;12.00;65.30
10057;DHT22;5068;51.286;7.518;2023-09-08T03:12:40;12.00;65.80
10057;DHT22;5068;51.286;7.518;2023-09-08T03:14:14;12.00;64.90
10057;DHT22;5068;51.286;7.518;2023-09-08T03:15:48;12.00;64.70
10057;DHT22;5068;51.286;7.518;2023-09-08T03:17:22;12.00;65.10
10057;DHT22;5068;51.286;7.518;2023-09-08T03:18:54;12.00;65.40
10057;DHT22;5068;51.286;7.518;2023-09-08T03:20:28;12.00;65.40
10057;DHT22;5068;51.286;7.518;2023-09-08T03:22:01;12.00;65.10
10057;DHT22;5068;51.286;7.518;2023-09-08T03:23:36;12.00;65.40
10057;DHT22;5068;51.286;7.518;2023-09-08T03:25:09;12.00;65.70
10057;DHT22;5068;51.286;7.518;2023-09-08T03:26:42;12.00;65.60
10057;DHT22;5068;51.286;7.518;2023-09-08T03:28:15;12.00;65.40
10057;DHT22;5068;51.286;7.518;2023-09-08T03:29:48;12.00;65.50
10057;DHT22;5068;51.286;7.518;2023-09-08T03:31:23;12.00;65.30
10057;DHT22;5068;51.286;7.518;2023-09-08T03:32:57;12.00;65.50
10057;DHT22;5068;51.286;7.518;2023-09-08T03:34:30;11.90;65.50
10057;DHT22;5068;51.286;7.518;2023-09-08T03:36:04;11.90;65.50
10057;DHT22;5068;51.286;7.518;2023-09-08T03:37:36;11.90;65.60
10057;DHT22;5068;51.286;7.518;2023-09-08T03:39:10;11.90;65.50
10057;DHT22;5068;51.286;7.518;2023-09-08T03:40:43;11.90;65.70
10057;DHT22;5068;51.286;7.518;2023-09-08T03:42:17;11.90;65.70
10057;DHT22;5068;51.286;7.518;2023-09-08T03:43:49;11.90;65.50
10057;DHT22;5068;51.286;7.518;2023-09-08T03:45:23;11.80;66.30
10057;DHT22;5068;51.286;7.518;2023-09-08T03:46:57;11.90;65.60
10057;DHT22;5068;51.286;7.518;2023-09-08T03:48:35;11.80;65.50
10057;DHT22;5068;51.286;7.518;2023-09-08T03:50:08;11.80;65.60
10057;DHT22;5068;51.286;7.518;2023-09-08T03:51:43;11.80;66.30
10057;DHT22;5068;51.286;7.518;2023-09-08T03:53:16;11.80;66.00
10057;DHT22;5068;51.286;7.518;2023-09-08T03:54:50;11.90;66.30
10057;DHT22;5068;51.286;7.518;2023-09-08T03:56:22;11.80;66.10
10057;DHT22;5068;51.286;7.518;2023-09-08T03:57:58;11.80;66.00
10057;DHT22;5068;51.286;7.518;2023-09-08T03:59:31;11.80;66.30
10057;DHT22;5068;51.286;7.518;2023-09-08T04:01:04;11.80;66.50
10057;DHT22;5068;51.286;7.518;2023-09-08T04:02:39;11.80;65.90
10057;DHT22;5068;51.286;7.518;2023-09-08T04:04:12;11.80;65.90
10057;DHT22;5068;51.286;7.518;2023-09-08T04:05:46;11.80;66.20
10057;DHT22;5068;51.286;7.518;2023-09-08T04:07:18;11.80;66.20
10057;DHT22;5068;51.286;7.518;2023-09-08T04:08:52;11.80;65.90
10057;DHT22;5068;51.286;7.518;2023-09-08T04:10:26;11.80;66.00
10057;DHT22;5068;51.286;7.518;2023-09-08T04:12:00;11.80;65.90
10057;DHT22;5068;51.286;7.518;2023-09-08T04:13:34;11.80;66.10
10057;DHT22;5068;51.286;7.518;2023-09-08T04:15:09;11.80;66.10
10057;DHT22;5068;51.286;7.518;2023-09-08T04:16:42;11.80;66.50
10057;DHT22;5068;51.286;7.518;2023-09-08T04:18:17;11.70;66.40
10057;DHT22;5068;51.286;7.518;2023-09-08T04:19:50;11.80;65.60
10057;DHT22;5068;51.286;7.518;2023-09-08T04:21:24;11.70;66.20
10057;DHT22;5068;51.286;7.518;2023-09-08T04:22:57;11.70;66.20
10057;DHT22;5068;51.286;7.518;2023-09-08T04:24:35;11.70;66.10
10057;DHT22;5068;51.286;7.518;2023-09-08T04:26:08;11.70;66.60
10057;DHT22;5068;51.286;7.518;2023-09-08T04:27:42;11.70;66.00
10057;DHT22;5068;51.286;7.518;2023-09-08T04:29:14;11.70;66.80
10057;DHT22;5068;51.286;7.518;2023-09-08T04:30:48;11.70;66.30
10057;DHT22;5068;51.286;7.518;2023-09-08T04:32:22;11.70;66.40
10057;DHT22;5068;51.286;7.518;2023-09-08T04:33:56;11.70;66.10
10057;DHT22;5068;51.286;7.518;2023-09-08T04:35:30;11.70;66.40
10057;DHT22;5068;51.286;7.518;2023-09-08T04:37:05;11.70;66.40
10057;DHT22;5068;51.286;7.518;2023-09-08T04:38:37;11.70;66.50
10057;DHT22;5068;51.286;7.518;2023-09-08T04:40:15;11.70;65.90
10057;DHT22;5068;51.286;7.518;2023-09-08T04:41:48;11.70;66.10
10057;DHT22;5068;51.286;7.518;2023-09-08T04:43:21;11.70;66.20
10057;DHT22;5068;51.286;7.518;2023-09-08T04:44:55;11.70;66.00
10057;DHT22;5068;51.286;7.518;2023-09-08T04:46:28;11.70;66.20
10057;DHT22;5068;51.286;7.518;2023-09-08T04:48:02;11.70;66.10
10057;DHT22;5068;51.286;7.518;2023-09-08T04:49:37;11.70;66.50
10057;DHT22;5068;51.286;7.518;2023-09-08T04:51:10;11.70;65.90
10057;DHT22;5068;51.286;7.518;2023-09-08T04:52:44;11.60;65.80
10057;DHT22;5068;51.286;7.518;2023-09-08T04:54:17;11.70;66.00
10057;DHT22;5068;51.286;7.518;2023-09-08T04:55:53;11.70;66.00
10057;DHT22;5068;51.286;7.518;2023-09-08T04:57:26;11.70;66.10
10057;DHT22;5068;51.286;7.518;2023-09-08T04:59:02;11.70;66.10
10057;DHT22;5068;51.286;7.518;2023-09-08T05:00:38;11.70;65.90
10057;DHT22;5068;51.286;7.518;2023-09-08T05:02:12;11.70;66.60
10057;DHT22;5068;51.286;7.518;2023-09-08T05:03:45;11.70;66.30
10057;DHT22;5068;51.286;7.518;2023-09-08T05:05:20;11.70;66.40
10057;DHT22;5068;51.286;7.518;2023-09-08T05:06:54;11.60;66.40
10057;DHT22;5068;51.286;7.518;2023-09-08T05:08:27;11.60;65.80
10057;DHT22;5068;51.286;7.518;2023-09-08T05:10:01;11.70;66.10
10057;DHT22;5068;51.286;7.518;2023-09-08T05:11:38;11.70;65.90
10057;DHT22;5068;51.286;7.518;2023-09-08T05:13:11;11.70;65.90
10057;DHT22;5068;51.286;7.518;2023-09-08T05:15:02;11.70;65.60
10057;DHT22;5068;51.286;7.518;2023-09-08T05:16:41;11.70;66.30
10057;DHT22;5068;51.286;7.518;2023-09-08T05:18:23;11.70;66.00
10057;DHT22;5068;51.286;7.518;2023-09-08T05:19:57;11.70;65.90
10057;DHT22;5068;51.286;7.518;2023-09-08T05:21:34;11.70;66.00
10057;DHT22;5068;51.286;7.518;2023-09-08T05:23:08;11.70;66.10
10057;DHT22;5068;51.286;7.518;2023-09-08T05:24:41;11.70;65.70
10057;DHT22;5068;51.286;7.518;2023-09-08T05:26:16;11.70;64.70
10057;DHT22;5068;51.286;7.518;2023-09-08T05:27:48;11.60;65.10
10057;DHT22;5068;51.286;7.518;2023-09-08T05:29:22;11.60;65.30
10057;DHT22;5068;51.286;7.518;2023-09-08T05:30:56;11.60;65.50
10057;DHT22;5068;51.286;7.518;2023-09-08T05:32:29;11.60;65.70
10057;DHT22;5068;51.286;7.518;2023-09-08T05:34:03;11.60;65.40
10057;DHT22;5068;51.286;7.518;2023-09-08T05:35:36;11.60;65.70
10057;DHT22;5068;51.286;7.518;2023-09-08T05:37:11;11.60;66.20
10057;DHT22;5068;51.286;7.518;2023-09-08T05:38:45;11.70;66.00
10057;DHT22;5068;51.286;7.518;2023-09-08T05:40:18;11.50;65.90
10057;DHT22;5068;51.286;7.518;2023-09-08T05:41:53;11.60;66.10
10057;DHT22;5068;51.286;7.518;2023-09-08T05:43:31;11.50;66.40
10057;DHT22;5068;51.286;7.518;2023-09-08T05:45:06;11.50;66.50
10057;DHT22;5068;51.286;7.518;2023-09-08T05:46:40;11.50;66.60
10057;DHT22;5068;51.286;7.518;2023-09-08T05:48:13;11.60;66.40
10057;DHT22;5068;51.286;7.518;2023-09-08T05:49:47;11.50;66.20
10057;DHT22;5068;51.286;7.518;2023-09-08T05:51:19;11.60;65.60
10057;DHT22;5068;51.286;7.518;2023-09-08T05:52:56;11.60;66.10
10057;DHT22;5068;51.286;7.518;2023-09-08T05:54:30;11.50;65.70
10057;DHT22;5068;51.286;7.518;2023-09-08T05:56:04;11.50;66.20
10057;DHT22;5068;51.286;7.518;2023-09-08T05:57:37;11.50;66.20
10057;DHT22;5068;51.286;7.518;2023-09-08T05:59:10;11.50;65.60
10057;DHT22;5068;51.286;7.518;2023-09-08T06:00:45;11.50;65.90
10057;DHT22;5068;51.286;7.518;2023-09-08T06:02:18;11.50;66.20
10057;DHT22;5068;51.286;7.518;2023-09-08T06:03:51;11.50;65.90
10057;DHT22;5068;51.286;7.518;2023-09-08T06:05:26;11.50;66.00
10057;DHT22;5068;51.286;7.518;2023-09-08T06:07:00;11.50;65.80
10057;DHT22;5068;51.286;7.518;2023-09-08T06:08:36;11.50;66.00
10057;DHT22;5068;51.286;7.518;2023-09-08T06:10:10;11.50;66.80
10057;DHT22;5068;51.286;7.518;2023-09-08T06:11:43;11.60;66.20
10057;DHT22;5068;51.286;7.518;2023-09-08T06:13:16;11.60;66.60
10057;DHT22;5068;51.286;7.518;2023-09-08T06:14:49;11.60;66.70
10057;DHT22;5068;51.286;7.518;2023-09-08T06:16:22;11.60;66.50
10057;DHT22;5068;51.286;7.518;2023-09-08T06:17:55;11.60;66.70
10057;DHT22;5068;51.286;7.518;2023-09-08T06:19:29;11.60;67.30
10057;DHT22;5068;51.286;7.518;2023-09-08T06:21:03;11.60;67.30
10057;DHT22;5068;51.286;7.518;2023-09-08T06:22:35;11.60;67.50
10057;DHT22;5068;51.286;7.518;2023-09-08T06:24:10;11.80;66.90
10057;DHT22;5068;51.286;7.518;2023-09-08T06:25:44;11.70;67.40
10057;DHT22;5068;51.286;7.518;2023-09-08T06:27:17;11.70;67.50
10057;DHT22;5068;51.286;7.518;2023-09-08T06:28:51;11.80;67.30
10057;DHT22;5068;51.286;7.518;2023-09-08T06:30:24;11.80;66.90
10057;DHT22;5068;51.286;7.518;2023-09-08T06:31:58;11.80;67.00
10057;DHT22;5068;51.286;7.518;2023-09-08T06:33:31;11.90;67.70
10057;DHT22;5068;51.286;7.518;2023-09-08T06:35:05;11.90;67.80
10057;DHT22;5068;51.286;7.518;2023-09-08T06:36:38;11.90;67.50
10057;DHT22;5068;51.286;7.518;2023-09-08T06:38:12;12.00;67.30
10057;DHT22;5068;51.286;7.518;2023-09-08T06:39:46;12.00;67.30
10057;DHT22;5068;51.286;7.518;2023-09-08T06:41:20;12.00;67.00
10057;DHT22;5068;51.286;7.518;2023-09-08T06:42:52;12.10;67.90
10057;DHT22;5068;51.286;7.518;2023-09-08T06:44:40;12.20;67.40
10057;DHT22;5068;51.286;7.518;2023-09-08T06:46:14;12.10;67.60
10057;DHT22;5068;51.286;7.518;2023-09-08T06:47:47;12.20;67.30
10057;DHT22;5068;51.286;7.518;2023-09-08T06:49:22;12.20;67.90
10057;DHT22;5068;51.286;7.518;2023-09-08T06:50:55;12.40;67.50
10057;DHT22;5068;51.286;7.518;2023-09-08T06:52:30;12.30;68.00
10057;DHT22;5068;51.286;7.518;2023-09-08T06:54:03;12.40;68.20
10057;DHT22;5068;51.286;7.518;2023-09-08T06:55:47;12.40;68.10
10057;DHT22;5068;51.286;7.518;2023-09-08T06:57:21;12.40;68.50
10057;DHT22;5068;51.286;7.518;2023-09-08T06:58:54;12.50;68.50
10057;DHT22;5068;51.286;7.518;2023-09-08T07:00:30;12.50;68.70
10057;DHT22;5068;51.286;7.518;2023-09-08T07:02:04;12.50;68.70
10057;DHT22;5068;51.286;7.518;2023-09-08T07:03:38;12.60;68.90
10057;DHT22;5068;51.286;7.518;2023-09-08T07:05:13;12.70;69.00
10057;DHT22;5068;51.286;7.518;2023-09-08T07:06:48;12.80;69.40
10057;DHT22;5068;51.286;7.518;2023-09-08T07:08:22;12.90;69.60
10057;DHT22;5068;51.286;7.518;2023-09-08T07:09:56;12.90;69.70
10057;DHT22;5068;51.286;7.518;2023-09-08T07:11:30;12.90;69.50
10057;DHT22;5068;51.286;7.518;2023-09-08T07:13:04;13.10;69.90
10057;DHT22;5068;51.286;7.518;2023-09-08T07:14:36;13.20;69.70
10057;DHT22;5068;51.286;7.518;2023-09-08T07:16:10;13.30;69.90
10057;DHT22;5068;51.286;7.518;2023-09-08T07:17:44;13.30;69.80
10057;DHT22;5068;51.286;7.518;2023-09-08T07:19:18;13.40;70.40
10057;DHT22;5068;51.286;7.518;2023-09-08T07:20:51;13.60;70.60
10057;DHT22;5068;51.286;7.518;2023-09-08T07:22:25;13.50;70.70
10057;DHT22;5068;51.286;7.518;2023-09-08T07:23:58;13.60;71.40
10057;DHT22;5068;51.286;7.518;2023-09-08T07:25:33;13.70;70.10
10057;DHT22;5068;51.286;7.518;2023-09-08T07:27:07;13.70;71.10
10057;DHT22;5068;51.286;7.518;2023-09-08T07:28:41;13.90;70.90
10057;DHT22;5068;51.286;7.518;2023-09-08T07:30:17;14.00;70.70
10057;DHT22;5068;51.286;7.518;2023-09-08T07:31:51;14.00;71.10
10057;DHT22;5068;51.286;7.518;2023-09-08T07:33:25;14.10;71.00
10057;DHT22;5068;51.286;7.518;2023-09-08T07:34:58;14.20;70.90
10057;DHT22;5068;51.286;7.518;2023-09-08T07:36:31;14.20;71.00
10057;DHT22;5068;51.286;7.518;2023-09-08T07:38:05;14.30;71.50
10057;DHT22;5068;51.286;7.518;2023-09-08T07:39:38;14.50;72.30
10057;DHT22;5068;51.286;7.518;2023-09-08T07:41:12;14.50;72.90
10057;DHT22;5068;51.286;7.518;2023-09-08T07:42:46;14.50;72.10
10057;DHT22;5068;51.286;7.518;2023-09-08T07:44:20;14.70;72.50
10057;DHT22;5068;51.286;7.518;2023-09-08T07:45:54;14.80;72.40
10057;DHT22;5068;51.286;7.518;2023-09-08T07:47:27;14.80;72.80
10057;DHT22;5068;51.286;7.518;2023-09-08T07:49:02;15.00;72.90
10057;DHT22;5068;51.286;7.518;2023-09-08T07:50:36;15.10;73.30
10057;DHT22;5068;51.286;7.518;2023-09-08T07:52:10;15.20;73.60
10057;DHT22;5068;51.286;7.518;2023-09-08T07:53:42;15.30;73.00
10057;DHT22;5068;51.286;7.518;2023-09-08T07:55:16;15.40;74.20
10057;DHT22;5068;51.286;7.518;2023-09-08T07:56:49;15.60;74.00
10057;DHT22;5068;51.286;7.518;2023-09-08T07:58:25;15.70;73.70
10057;DHT22;5068;51.286;7.518;2023-09-08T07:59:57;15.80;74.10
10057;DHT22;5068;51.286;7.518;2023-09-08T08:01:31;16.00;74.00
10057;DHT22;5068;51.286;7.518;2023-09-08T08:03:04;16.00;74.20
10057;DHT22;5068;51.286;7.518;2023-09-08T08:04:39;16.20;74.20
10057;DHT22;5068;51.286;7.518;2023-09-08T08:06:11;16.30;73.80
10057;DHT22;5068;51.286;7.518;2023-09-08T08:07:45;16.50;74.20
10057;DHT22;5068;51.286;7.518;2023-09-08T08:09:18;16.60;74.20
10057;DHT22;5068;51.286;7.518;2023-09-08T08:10:51;16.70;74.00
10057;DHT22;5068;51.286;7.518;2023-09-08T08:12:24;16.90;74.40
10057;DHT22;5068;51.286;7.518;2023-09-08T08:13:59;17.00;74.30
10057;DHT22;5068;51.286;7.518;2023-09-08T08:15:36;17.20;74.40
10057;DHT22;5068;51.286;7.518;2023-09-08T08:17:10;17.30;74.60
10057;DHT22;5068;51.286;7.518;2023-09-08T08:18:43;17.40;73.90
10057;DHT22;5068;51.286;7.518;2023-09-08T08:20:17;17.60;74.00
10057;DHT22;5068;51.286;7.518;2023-09-08T08:21:51;17.70;73.70
10057;DHT22;5068;51.286;7.518;2023-09-08T08:23:25;17.90;74.00
10057;DHT22;5068;51.286;7.518;2023-09-08T08:24:58;18.00;73.50
10057;DHT22;5068;51.286;7.518;2023-09-08T08:26:31;18.10;73.30
10057;DHT22;5068;51.286;7.518;2023-09-08T08:28:05;18.30;73.50
10057;DHT22;5068;51.286;7.518;2023-09-08T08:29:39;18.40;73.20
10057;DHT22;5068;51.286;7.518;2023-09-08T08:31:13;18.60;72.70
10057;DHT22;5068;51.286;7.518;2023-09-08T08:32:45;18.70;72.70
10057;DHT22;5068;51.286;7.518;2023-09-08T08:34:19;18.80;72.30
10057;DHT22;5068;51.286;7.518;2023-09-08T08:35:53;19.00;72.20
10057;DHT22;5068;51.286;7.518;2023-09-08T08:37:27;19.10;72.40
10057;DHT22;5068;51.286;7.518;2023-09-08T08:39:00;19.30;71.90
10057;DHT22;5068;51.286;7.518;2023-09-08T08:40:33;19.40;70.20
10057;DHT22;5068;51.286;7.518;2023-09-08T08:42:11;19.50;70.40
10057;DHT22;5068;51.286;7.518;2023-09-08T08:43:45;19.60;70.20
10057;DHT22;5068;51.286;7.518;2023-09-08T08:45:23;19.80;70.50
10057;DHT22;5068;51.286;7.518;2023-09-08T08:46:58;19.90;70.30
10057;DHT22;5068;51.286;7.518;2023-09-08T08:48:33;20.10;70.20
10057;DHT22;5068;51.286;7.518;2023-09-08T08:50:09;20.20;69.70
10057;DHT22;5068;51.286;7.518;2023-09-08T08:51:44;20.30;69.00
10057;DHT22;5068;51.286;7.518;2023-09-08T08:53:21;20.50;68.90
10057;DHT22;5068;51.286;7.518;2023-09-08T08:54:55;20.60;68.80
10057;DHT22;5068;51.286;7.518;2023-09-08T08:56:28;20.70;67.70
10057;DHT22;5068;51.286;7.518;2023-09-08T08:58:04;20.90;67.20
10057;DHT22;5068;51.286;7.518;2023-09-08T08:59:38;21.00;67.70
10057;DHT22;5068;51.286;7.518;2023-09-08T09:01:16;21.10;65.60
10057;DHT22;5068;51.286;7.518;2023-09-08T09:02:51;21.20;64.40
10057;DHT22;5068;51.286;7.518;2023-09-08T09:04:42;21.40;63.80
10057;DHT22;5068;51.286;7.518;2023-09-08T09:06:18;21.60;64.70
10057;DHT22;5068;51.286;7.518;2023-09-08T09:07:52;21.70;64.50
10057;DHT22;5068;51.286;7.518;2023-09-08T09:09:28;21.80;64.10
10057;DHT22;5068;51.286;7.518;2023-09-08T09:11:02;21.90;63.70
10057;DHT22;5068;51.286;7.518;2023-09-08T09:12:36;22.10;63.90
10057;DHT22;5068;51.286;7.518;2023-09-08T09:14:10;22.20;63.70
10057;DHT22;5068;51.286;7.518;2023-09-08T09:15:44;22.30;62.60
10057;DHT22;5068;51.286;7.518;2023-09-08T09:17:19;22.40;62.60
10057;DHT22;5068;51.286;7.518;2023-09-08T09:18:54;22.60;62.30
10057;DHT22;5068;51.286;7.518;2023-09-08T09:20:28;22.70;60.90
10057;DHT22;5068;51.286;7.518;2023-09-08T09:22:02;22.80;59.40
10057;DHT22;5068;51.286;7.518;2023-09-08T09:23:35;22.90;59.30
10057;DHT22;5068;51.286;7.518;2023-09-08T09:25:08;23.10;59.00
10057;DHT22;5068;51.286;7.518;2023-09-08T09:26:43;23.20;58.30
10057;DHT22;5068;51.286;7.518;2023-09-08T09:28:16;23.30;57.40
10057;DHT22;5068;51.286;7.518;2023-09-08T09:29:50;23.40;56.70
10057;DHT22;5068;51.286;7.518;2023-09-08T09:31:23;23.50;56.00
10057;DHT22;5068;51.286;7.518;2023-09-08T09:33:03;23.70;56.20
10057;DHT22;5068;51.286;7.518;2023-09-08T09:34:47;23.80;55.30
10057;DHT22;5068;51.286;7.518;2023-09-08T09:36:22;23.90;54.80
10057;DHT22;5068;51.286;7.518;2023-09-08T09:37:55;24.00;55.50
10057;DHT22;5068;51.286;7.518;2023-09-08T09:39:29;24.10;54.90
10057;DHT22;5068;51.286;7.518;2023-09-08T09:41:02;24.20;53.90
10057;DHT22;5068;51.286;7.518;2023-09-08T09:42:38;24.40;53.30
10057;DHT22;5068;51.286;7.518;2023-09-08T09:44:13;24.50;52.30
10057;DHT22;5068;51.286;7.518;2023-09-08T09:45:46;24.60;52.70
10057;DHT22;5068;51.286;7.518;2023-09-08T09:47:20;24.70;52.30
10057;DHT22;5068;51.286;7.518;2023-09-08T09:48:55;24.80;52.10
10057;DHT22;5068;51.286;7.518;2023-09-08T09:50:29;24.90;52.00
10057;DHT22;5068;51.286;7.518;2023-09-08T09:52:05;25.00;51.90
10057;DHT22;5068;51.286;7.518;2023-09-08T09:53:41;25.10;51.20
10057;DHT22;5068;51.286;7.518;2023-09-08T09:55:16;25.20;50.90
10057;DHT22;5068;51.286;7.518;2023-09-08T09:56:50;25.30;50.50
10057;DHT22;5068;51.286;7.518;2023-09-08T09:58:26;25.40;50.30
10057;DHT22;5068;51.286;7.518;2023-09-08T10:00:03;25.50;51.50
10057;DHT22;5068;51.286;7.518;2023-09-08T10:01:38;25.70;50.80
10057;DHT22;5068;51.286;7.518;2023-09-08T10:03:13;25.80;50.20
10057;DHT22;5068;51.286;7.518;2023-09-08T10:04:49;25.90;49.20